Terminal Aerodrome Forecast
Issued by NWS

Home | Current Version | Previous Version | Text Only | Print | Product List | Glossary On
Versions: 1 2 3 4 5 6 7 8 9 10 11 12 13
000
FTUS45 KTFX 272341
TAFLWT
TAF
KLWT 272341Z 2800/2824 28010KT 5SM FU BKN035 BKN090
     FM280300 VRB05KT P6SM SKC
     FM281900 24008KT 6SM FU SCT040 SCT100=

USA.gov is the U.S. government's official web portal to all federal, state and local government web resources and services.